KNZY

North Island NAS / Halsey Field Airport

San Diego, California, USA
METAR KNZY 231352Z 20004KT 10SM OVC025 16/12 A2996 RMK SLP143 T01610122
Observed Flight Rules
May-23 @ 13:52 UTC (an hour ago) Marginal Visual Flight Rules
Wind Visibility Clouds
200° at 4 knots 10 miles
  • Overcast at 2,500' AGL
Temperatures Readings
Current 16°C / 61°F
Dewpoint 12°C / 54°F
Humidity 77%
Altimeter 29.96" Hg
Pressure 1014.3 hPa
Elevation 8
METAR KNZY 231352Z 20004KT 10SM OVC025 16/12 A2996 RMK SLP143 T01610122
Observed Flight Rules
May-23 @ 13:52 UTC
(an hour ago)
MVFR
Wind Visibility
200° at 4 knots 10 miles
Clouds
  • Overcast at 2,500' AGL
Temperature Dewpoint
16°C / 61°F 12°C / 54°F
Humidity Altimeter Pressure
77% 29.96" Hg 1014.3 hPa